createdAt,value
2022-10-17T00:05:02.293Z,4.85
2022-10-17T00:10:07.233Z,8.80
2022-10-17T00:15:16.247Z,7.55
2022-10-17T00:20:20.028Z,7.03
2022-10-17T00:25:23.804Z,4.40
2022-10-17T00:30:28.773Z,4.90
2022-10-17T00:35:32.485Z,6.05
2022-10-17T00:40:36.112Z,4.18
2022-10-17T00:45:41.310Z,5.60
2022-10-17T00:50:51.058Z,4.20
2022-10-17T00:55:55.749Z,4.38
2022-10-17T01:01:00.823Z,6.10
2022-10-17T01:06:04.716Z,6.05
2022-10-17T01:11:21.467Z,6.85
2022-10-17T01:16:38.749Z,5.93
2022-10-17T01:21:51.392Z,7.65
2022-10-17T01:27:14.126Z,4.97
2022-10-17T01:32:24.765Z,7.38
2022-10-17T01:37:33.651Z,5.35
2022-10-17T01:42:43.531Z,4.45
2022-10-17T01:47:51.597Z,7.00
2022-10-17T01:53:00.420Z,6.38
2022-10-17T01:58:08.811Z,6.43
2022-10-17T02:03:16.727Z,6.25
2022-10-17T02:08:28.314Z,5.68
2022-10-17T02:13:47.933Z,5.38
2022-10-17T02:19:09.939Z,4.20
2022-10-17T02:24:22.225Z,5.75
2022-10-17T02:29:32.533Z,7.50
2022-10-17T02:34:43.632Z,6.22
2022-10-17T02:39:49.384Z,5.85
2022-10-17T02:44:56.169Z,7.80
2022-10-17T02:50:01.266Z,9.82
2022-10-17T02:55:10.905Z,7.35
2022-10-17T03:00:17.748Z,6.57
2022-10-17T03:05:27.095Z,7.38
2022-10-17T03:10:30.881Z,6.47
2022-10-17T03:15:35.043Z,8.52
2022-10-17T03:20:40.258Z,6.13
2022-10-17T03:25:43.971Z,5.72
2022-10-17T03:30:50.794Z,5.97
2022-10-17T03:35:55.935Z,6.38
2022-10-17T03:40:59.736Z,6.85
2022-10-17T03:46:04.632Z,5.47
2022-10-17T03:51:11.579Z,6.38
2022-10-17T03:56:22.916Z,5.82
2022-10-17T04:01:46.311Z,6.45
2022-10-17T04:06:51.689Z,6.15
2022-10-17T04:11:55.937Z,6.38
2022-10-17T04:17:00.384Z,7.15
2022-10-17T04:22:08.508Z,5.75
2022-10-17T04:27:14.763Z,5.13
2022-10-17T04:32:21.881Z,4.75
2022-10-17T04:37:35.936Z,8.63
2022-10-17T04:42:46.532Z,4.82
2022-10-17T04:47:54.569Z,5.22
2022-10-17T04:53:00.450Z,5.00
2022-10-17T04:58:04.222Z,4.20
2022-10-17T05:03:09.277Z,12.57
2022-10-17T05:08:14.675Z,6.05
2022-10-17T05:13:18.623Z,4.20
2022-10-17T05:18:22.346Z,6.07
2022-10-17T05:23:27.458Z,7.75
2022-10-17T05:28:31.202Z,5.40
2022-10-17T05:33:38.288Z,6.95
2022-10-17T05:38:43.574Z,6.22
2022-10-17T05:43:50.348Z,5.32
2022-10-17T05:48:58.433Z,7.53
2022-10-17T05:54:05.922Z,6.72
2022-10-17T05:59:10.037Z,5.95
2022-10-17T06:04:27.856Z,5.13
2022-10-17T06:09:33.569Z,5.00
2022-10-17T06:14:38.848Z,4.57
2022-10-17T06:19:44.867Z,10.80
2022-10-17T06:24:52.663Z,4.17
2022-10-17T06:29:56.638Z,5.85
2022-10-17T06:35:00.400Z,5.40
2022-10-17T06:40:08.990Z,4.38
2022-10-17T06:45:13.738Z,4.15
2022-10-17T06:50:59.373Z,5.25
2022-10-17T06:56:07.021Z,15.50
2022-10-17T07:01:37.392Z,4.00
2022-10-17T07:06:42.181Z,4.53
2022-10-17T07:11:55.691Z,3.63
2022-10-17T07:17:00.342Z,4.47
2022-10-17T07:22:06.369Z,10.07
2022-10-17T07:27:13.714Z,3.78
2022-10-17T07:32:17.501Z,5.73
2022-10-17T07:37:21.834Z,9.93
2022-10-17T07:42:32.343Z,7.95
2022-10-17T07:47:36.269Z,11.70
2022-10-17T07:52:43.529Z,6.10
2022-10-17T07:57:48.633Z,6.15
2022-10-17T08:02:52.312Z,6.28
2022-10-17T08:07:56.117Z,7.63
2022-10-17T08:13:01.114Z,7.13
2022-10-17T08:18:04.740Z,8.55
2022-10-17T08:23:08.540Z,8.82
2022-10-17T08:28:13.600Z,6.68
2022-10-17T08:33:17.303Z,7.88
2022-10-17T08:38:21.310Z,7.85
2022-10-17T08:43:37.849Z,7.97
2022-10-17T08:48:46.650Z,7.55
2022-10-17T08:53:55.515Z,6.03
2022-10-17T08:59:00.738Z,6.25
2022-10-17T09:04:29.590Z,7.57
2022-10-17T09:09:41.308Z,6.25
2022-10-17T09:15:20.291Z,7.75
2022-10-17T09:20:28.521Z,5.53
2022-10-17T09:25:43.561Z,7.53
2022-10-17T09:30:50.396Z,5.65
2022-10-17T09:35:56.886Z,5.95
2022-10-17T09:41:04.732Z,5.22
2022-10-17T09:46:26.552Z,5.88
2022-10-17T09:51:32.151Z,6.07
2022-10-17T09:56:58.970Z,8.02
2022-10-17T10:07:14.643Z,6.35
2022-10-17T10:12:21.057Z,4.55
2022-10-17T10:17:34.530Z,6.20
2022-10-17T10:22:39.605Z,9.75
2022-10-17T10:27:45.205Z,9.10
2022-10-17T10:32:50.610Z,10.85
2022-10-17T10:37:57.689Z,6.20
2022-10-17T10:43:05.338Z,9.98
2022-10-17T10:48:20.659Z,6.05
2022-10-17T10:53:37.282Z,7.35
2022-10-17T10:58:54.243Z,5.75
2022-10-17T11:09:35.638Z,6.00
2022-10-17T11:14:44.517Z,10.25
2022-10-17T11:19:53.437Z,6.50
2022-10-17T11:25:02.168Z,6.88
2022-10-17T11:30:07.421Z,7.43
2022-10-17T11:35:20.755Z,7.28
2022-10-17T11:40:31.958Z,9.07
2022-10-17T11:45:46.407Z,7.35
2022-10-17T11:56:30.568Z,6.95
2022-10-17T12:01:40.075Z,8.95
2022-10-17T12:07:01.233Z,8.05
2022-10-17T12:12:06.520Z,7.45
2022-10-17T12:17:33.097Z,8.73
2022-10-17T12:22:37.216Z,10.35
2022-10-17T12:27:47.427Z,11.57
2022-10-17T12:33:06.168Z,10.65
2022-10-17T12:38:22.599Z,12.90
2022-10-17T12:43:57.990Z,9.63
2022-10-17T12:49:20.238Z,13.85
2022-10-17T12:54:24.300Z,14.85
2022-10-17T12:59:30.628Z,12.95
2022-10-17T13:04:38.306Z,12.70
2022-10-17T13:09:45.134Z,8.88
2022-10-17T13:14:52.672Z,10.02
2022-10-17T13:19:56.855Z,12.23
2022-10-17T13:25:09.616Z,12.20
2022-10-17T13:30:29.499Z,14.45
2022-10-17T13:41:33.755Z,9.73
2022-10-17T13:46:39.009Z,10.00
2022-10-17T13:51:45.935Z,10.68
2022-10-17T13:56:57.144Z,10.65
2022-10-17T14:02:02.884Z,9.40
2022-10-17T14:07:07.641Z,14.13
2022-10-17T14:12:13.682Z,11.65
2022-10-17T14:17:25.008Z,12.43
2022-10-17T14:22:30.363Z,11.25
2022-10-17T14:27:36.505Z,13.57
2022-10-17T14:32:44.657Z,13.37
2022-10-17T14:37:51.395Z,13.25
2022-10-17T14:42:57.336Z,11.40
2022-10-17T14:48:05.829Z,13.27
2022-10-17T14:53:22.418Z,10.65
2022-10-17T14:58:28.760Z,10.75
2022-10-17T15:03:33.983Z,12.47
2022-10-17T15:08:37.769Z,9.52
2022-10-17T15:13:45.615Z,9.27
2022-10-17T15:18:51.394Z,15.30
2022-10-17T15:23:55.156Z,11.13
2022-10-17T15:28:59.090Z,14.48
2022-10-17T15:34:04.196Z,14.50
2022-10-17T15:39:07.885Z,13.75
2022-10-17T15:44:12.008Z,12.70
2022-10-17T15:49:19.760Z,15.52
2022-10-17T15:54:23.463Z,15.38
2022-10-17T15:59:31.569Z,18.90
2022-10-17T16:04:36.765Z,15.35
2022-10-17T16:09:40.470Z,14.80
2022-10-17T16:14:44.201Z,18.02
2022-10-17T16:19:50.031Z,13.25
2022-10-17T16:24:58.380Z,12.93
2022-10-17T16:30:02.319Z,11.77
2022-10-17T16:35:08.742Z,12.82
2022-10-17T16:40:13.149Z,10.98
2022-10-17T16:45:19.360Z,10.10
2022-10-17T16:50:24.487Z,11.83
2022-10-17T16:55:28.261Z,14.02
2022-10-17T17:00:31.944Z,16.02
2022-10-17T17:05:36.980Z,15.10
2022-10-17T17:10:45.802Z,15.18
2022-10-17T17:15:53.718Z,11.57
2022-10-17T17:21:01.051Z,12.60
2022-10-17T17:26:08.353Z,12.20
2022-10-17T17:31:14.462Z,15.82
2022-10-17T17:36:21.285Z,18.77
2022-10-17T17:46:29.139Z,14.48
2022-10-17T17:51:37.695Z,13.30
2022-10-17T17:56:41.478Z,15.07
2022-10-17T18:01:45.368Z,16.08
2022-10-17T18:06:50.419Z,17.05
2022-10-17T18:11:54.107Z,16.48
2022-10-17T18:16:57.791Z,19.80
2022-10-17T18:22:02.741Z,14.57
2022-10-17T18:27:06.512Z,15.00
2022-10-17T18:32:10.898Z,16.15
2022-10-17T18:37:16.139Z,16.10
2022-10-17T18:42:20.477Z,16.13
2022-10-17T18:47:24.217Z,18.40
2022-10-17T18:52:29.248Z,14.85
2022-10-17T18:57:33.029Z,15.73
2022-10-17T19:02:38.053Z,18.98
2022-10-17T19:07:43.231Z,16.98
2022-10-17T19:12:46.893Z,15.18
2022-10-17T19:17:50.552Z,15.75
2022-10-17T19:22:55.961Z,17.08
2022-10-17T19:27:59.984Z,14.90
2022-10-17T19:33:03.663Z,16.80
2022-10-17T19:38:08.935Z,16.33
2022-10-17T19:43:12.603Z,12.55
2022-10-17T19:48:16.236Z,15.45
2022-10-17T19:53:23.921Z,13.70
2022-10-17T19:58:28.341Z,14.30
2022-10-17T20:03:32.143Z,14.18
2022-10-17T20:08:38.371Z,13.55
2022-10-17T20:13:42.393Z,19.43
2022-10-17T20:18:46.113Z,13.45
2022-10-17T20:23:51.626Z,14.02
2022-10-17T20:28:55.822Z,14.10
2022-10-17T20:34:00.862Z,13.30
2022-10-17T20:39:07.279Z,18.33
2022-10-17T20:44:12.035Z,17.40
2022-10-17T20:49:17.754Z,15.77
2022-10-17T20:54:22.849Z,17.40
2022-10-17T20:59:28.115Z,14.38
2022-10-17T21:04:47.901Z,16.63
2022-10-17T21:09:52.925Z,13.05
2022-10-17T21:14:56.632Z,26.05
2022-10-17T21:20:00.270Z,15.98
2022-10-17T21:25:05.644Z,12.73
2022-10-17T21:30:09.965Z,11.90
2022-10-17T21:35:13.647Z,12.90
2022-10-17T21:40:18.859Z,14.38
2022-10-17T21:45:25.784Z,14.00
2022-10-17T21:50:29.757Z,11.27
2022-10-17T21:55:37.437Z,12.82
2022-10-17T22:00:41.055Z,20.88
2022-10-17T22:05:46.097Z,12.57
2022-10-17T22:10:51.155Z,12.35
2022-10-17T22:15:59.659Z,12.93
2022-10-17T22:21:04.003Z,15.00
2022-10-17T22:26:10.575Z,14.57
2022-10-17T22:31:14.343Z,16.35
2022-10-17T22:36:18.250Z,15.40
2022-10-17T22:41:23.538Z,14.35
2022-10-17T22:46:27.621Z,12.90
2022-10-17T22:51:31.304Z,15.30
2022-10-17T22:56:36.420Z,14.82
2022-10-17T23:01:40.136Z,14.15
2022-10-17T23:06:43.855Z,11.57
2022-10-17T23:11:48.842Z,12.95
2022-10-17T23:16:52.498Z,15.50
2022-10-17T23:21:56.089Z,11.90
2022-10-17T23:27:01.074Z,11.05
2022-10-17T23:32:04.786Z,12.13
2022-10-17T23:37:08.436Z,11.55
2022-10-17T23:42:13.433Z,16.88
2022-10-17T23:47:17.100Z,11.50
2022-10-17T23:52:20.778Z,12.38
2022-10-17T23:57:25.862Z,14.77
